πŸ“Š DonnΓ©es MΓ©tΓ©o - Bordeaux

Total mesures

14,367

TempΓ©rature moyenne

18.8Β°C

Temp. Min/Max

2.9Β° / 42.4Β°

HumiditΓ© moyenne

64.9%

Pression moyenne

1014.7 hPa
enregistrements
ID Date/Heure Temp (Β°C) HumiditΓ© (%) Pression (hPa) Tendance LuminositΓ© (lux) Situation
12667 09/08/2026 15:15 35.7 25.0 1,011.0 β†’ Stable 76,296 chaleur-seche
12666 09/08/2026 14:45 35.6 25.0 1,011.6 β†’ Stable 85,092 chaleur-seche
12665 09/08/2026 14:15 35.1 26.0 1,011.6 β†’ Stable 91,116 chaleur-seche
12664 09/08/2026 13:45 34.5 27.0 1,011.6 β†’ Stable 97,224 chaleur-seche
12663 09/08/2026 13:15 35.2 29.0 1,011.4 β†’ Stable 100,368 chaleur-seche
12662 09/08/2026 12:45 34.5 31.0 1,012.4 β†’ Stable 102,780 chaleur-seche
12661 09/08/2026 12:15 33.6 30.0 1,012.4 β†’ Stable 103,524 chaleur-seche
12660 09/08/2026 11:45 32.4 35.0 1,012.8 β†’ Stable 102,684 chaleur-seche
12659 09/08/2026 11:15 32.3 36.0 1,012.8 β†’ Stable 100,368 chaleur-seche
12658 09/08/2026 10:45 31.2 40.0 1,012.5 β†’ Stable 95,928 confortablement-chaud (approx.)
12657 09/08/2026 10:15 30.1 42.0 1,012.5 β†’ Stable 91,296 confortablement-chaud (approx.)
12656 09/08/2026 09:45 29.1 46.0 1,013.0 β†’ Stable 79,536 confortablement-chaud (approx.)
12655 09/08/2026 09:15 28.3 50.0 1,013.0 β†’ Stable 73,608 confortablement-chaud
12654 09/08/2026 08:45 26.6 59.0 1,011.9 β†’ Stable 66,108 confortablement-chaud (approx.)
12653 09/08/2026 08:15 25.5 65.0 1,011.9 β†’ Stable 57,876 confortablement-chaud (approx.)
12652 09/08/2026 07:45 23.9 72.0 1,012.3 β†’ Stable 37,596 pluvieux-gris (approx.)
12651 09/08/2026 07:15 23.3 72.0 1,012.3 β†’ Stable 28,152 pluvieux-gris (approx.)
12650 09/08/2026 06:45 22.3 77.0 1,012.4 β†’ Stable 20,184 pluvieux-gris (approx.)
12649 09/08/2026 06:15 22.0 74.0 1,012.4 β†’ Stable 10,920 pluvieux-gris (approx.)
12648 09/08/2026 05:45 22.1 66.0 1,011.7 β†’ Stable 1,020 frais-stable
12647 09/08/2026 05:15 21.9 77.0 1,011.7 β†’ Stable 180 pluvieux-gris (approx.)
12646 09/08/2026 04:45 21.7 76.0 1,011.9 β†’ Stable 0 pluvieux-gris (approx.)
12645 09/08/2026 04:15 21.5 72.0 1,011.9 β†’ Stable 0 pluvieux-gris (approx.)
12644 09/08/2026 03:45 21.8 68.0 1,011.8 β†’ Stable 0 frais-stable
12643 09/08/2026 03:15 22.5 63.0 1,011.8 β†’ Stable 0 frais-stable
12642 09/08/2026 02:45 22.4 64.0 1,011.9 β†’ Stable 0 frais-stable
12641 09/08/2026 02:15 22.4 78.0 1,011.9 β†’ Stable 0 pluvieux-gris (approx.)
12640 09/08/2026 01:45 22.2 79.0 1,011.9 β†’ Stable 0 pluvieux-gris (approx.)
12639 09/08/2026 01:15 22.5 74.0 1,011.9 β†’ Stable 0 pluvieux-gris (approx.)
12638 09/08/2026 00:45 22.5 77.0 1,012.8 β†’ Stable 0 pluvieux-gris (approx.)
12637 09/08/2026 00:15 22.4 80.0 1,012.8 β†’ Stable 0 pluvieux-gris (approx.)
12636 08/08/2026 23:45 21.8 82.0 1,014.1 β†’ Stable 0 pluvieux-gris (approx.)
12635 08/08/2026 23:15 22.5 82.0 1,014.1 β†’ Stable 0 pluvieux-gris (approx.)
12634 08/08/2026 22:45 22.9 82.0 1,015.5 ↑ Hausse 0 conditions-neutrales-ou-non-definies
12633 08/08/2026 22:15 22.9 81.0 1,015.5 ↑ Hausse 0 conditions-neutrales-ou-non-definies
12632 08/08/2026 21:45 23.4 78.0 1,015.0 β†’ Stable 0 pluvieux-gris (approx.)
12631 08/08/2026 21:15 23.6 86.0 1,015.0 β†’ Stable 0 pluvieux-gris (approx.)
12630 08/08/2026 20:15 31.4 30.0 1,011.9 β†’ Stable 0 chaleur-seche
12629 08/08/2026 19:45 31.6 30.0 1,010.5 β†’ Stable 0 chaleur-seche
12628 08/08/2026 19:15 33.2 26.0 1,010.5 β†’ Stable 0 chaleur-seche
12627 08/08/2026 18:45 34.5 25.0 1,009.4 β†’ Stable 7,224 chaleur-seche
12626 08/08/2026 18:15 37.0 22.0 1,009.4 β†’ Stable 11,580 chaleur-seche
12625 08/08/2026 17:45 37.3 22.0 1,009.4 β†’ Stable 26,112 chaleur-seche
12624 08/08/2026 17:15 37.8 21.0 1,009.4 β†’ Stable 31,764 chaleur-seche
12623 08/08/2026 16:45 37.9 21.0 1,009.8 β†’ Stable 47,868 chaleur-seche
12622 08/08/2026 16:15 38.2 21.0 1,009.8 β†’ Stable 59,172 chaleur-seche
12621 08/08/2026 15:45 38.2 21.0 1,010.4 β†’ Stable 68,796 chaleur-seche
12620 08/08/2026 15:15 37.8 22.0 1,010.4 β†’ Stable 77,040 chaleur-seche
12619 08/08/2026 14:45 37.5 23.0 1,011.4 β†’ Stable 85,740 chaleur-seche
12618 08/08/2026 14:15 37.2 24.0 1,011.4 β†’ Stable 91,848 chaleur-seche
12617 08/08/2026 13:45 36.8 24.0 1,012.3 β†’ Stable 97,680 chaleur-seche
12616 08/08/2026 13:15 36.3 24.0 1,012.3 β†’ Stable 101,292 chaleur-seche
12615 08/08/2026 12:45 35.7 25.0 1,012.9 β†’ Stable 103,800 chaleur-seche
12614 08/08/2026 12:15 35.3 26.0 1,012.9 β†’ Stable 104,532 chaleur-seche
12613 08/08/2026 11:45 34.7 27.0 1,013.8 β†’ Stable 103,524 chaleur-seche
12612 08/08/2026 11:15 34.2 27.0 1,013.8 β†’ Stable 101,292 chaleur-seche
12611 08/08/2026 10:45 33.4 29.0 1,014.0 β†’ Stable 96,756 chaleur-seche
12610 08/08/2026 10:15 32.2 34.0 1,014.0 β†’ Stable 91,848 chaleur-seche
12609 08/08/2026 09:45 31.0 37.0 1,014.0 β†’ Stable 84,540 chaleur-seche
12608 08/08/2026 09:15 29.6 41.0 1,014.0 β†’ Stable 77,220 confortablement-chaud (approx.)
12607 08/08/2026 08:45 28.2 45.0 1,014.1 β†’ Stable 67,500 confortablement-chaud (approx.)
12606 08/08/2026 08:15 26.2 53.0 1,014.1 β†’ Stable 58,524 confortablement-chaud (approx.)
12605 08/08/2026 07:15 22.7 57.0 1,014.1 β†’ Stable 37,320 frais-stable
12604 08/08/2026 06:45 21.5 56.0 1,013.9 β†’ Stable 25,740 frais-stable
12603 08/08/2026 06:15 20.2 57.0 1,013.9 β†’ Stable 15,924 frais-stable
12602 08/08/2026 05:45 20.1 50.0 1,014.1 β†’ Stable 6,948 frais-stable
12601 08/08/2026 05:15 20.3 47.0 1,014.0 β†’ Stable 276 frais-stable
12600 08/08/2026 04:45 20.6 45.0 1,013.9 β†’ Stable 0 frais-stable
12599 08/08/2026 04:15 21.2 46.0 1,013.9 β†’ Stable 0 frais-stable
12598 08/08/2026 03:45 21.4 44.0 1,014.2 β†’ Stable 0 frais-stable
12597 08/08/2026 03:15 22.1 42.0 1,014.2 β†’ Stable 0 frais-stable
12596 08/08/2026 02:45 22.3 41.0 1,014.0 β†’ Stable 0 frais-stable
12595 08/08/2026 02:15 22.5 42.0 1,014.0 β†’ Stable 0 frais-stable
12594 08/08/2026 01:45 22.4 44.0 1,014.2 β†’ Stable 0 frais-stable
12593 08/08/2026 01:15 23.1 46.0 1,014.2 β†’ Stable 0 conditions-neutrales-ou-non-definies
12592 08/08/2026 00:45 23.3 48.0 1,014.3 β†’ Stable 0 conditions-neutrales-ou-non-definies
12591 08/08/2026 00:15 23.5 49.0 1,014.3 β†’ Stable 0 conditions-neutrales-ou-non-definies
12590 07/08/2026 23:45 23.6 53.0 1,014.7 β†’ Stable 0 conditions-neutrales-ou-non-definies
12589 07/08/2026 23:15 24.1 52.0 1,014.7 β†’ Stable 0 confortablement-chaud (approx.)
12588 07/08/2026 22:45 24.3 53.0 1,014.8 β†’ Stable 0 confortablement-chaud (approx.)
12587 07/08/2026 22:15 24.4 50.0 1,014.8 β†’ Stable 0 confortablement-chaud (approx.)
12586 07/08/2026 21:45 25.0 46.0 1,014.7 β†’ Stable 0 confortablement-chaud (approx.)
12585 07/08/2026 21:15 25.9 41.0 1,014.7 β†’ Stable 0 confortablement-chaud (approx.)
12584 07/08/2026 20:45 26.7 39.0 1,014.2 β†’ Stable 0 conditions-neutrales-ou-non-definies
12583 07/08/2026 20:15 28.0 34.0 1,014.2 β†’ Stable 0 conditions-neutrales-ou-non-definies
12582 07/08/2026 19:45 29.3 30.0 1,013.7 β†’ Stable 0 conditions-neutrales-ou-non-definies
12581 07/08/2026 19:15 31.0 24.0 1,013.7 β†’ Stable 0 chaleur-seche
12580 07/08/2026 18:45 31.8 24.0 1,014.0 β†’ Stable 7,872 chaleur-seche
12579 07/08/2026 18:15 33.1 22.0 1,014.0 β†’ Stable 17,868 chaleur-seche
12578 07/08/2026 17:45 33.5 22.0 1,014.4 β†’ Stable 27,960 chaleur-seche
12577 07/08/2026 17:15 33.8 21.0 1,014.4 β†’ Stable 38,244 chaleur-seche
12576 07/08/2026 16:45 33.9 21.0 1,014.7 β†’ Stable 49,908 chaleur-seche
12575 07/08/2026 16:15 33.8 22.0 1,014.7 β†’ Stable 59,628 chaleur-seche
12574 07/08/2026 15:45 33.4 23.0 1,015.2 β†’ Stable 70,464 chaleur-seche
12573 07/08/2026 15:15 33.3 22.0 1,015.2 β†’ Stable 79,080 chaleur-seche
12572 07/08/2026 14:45 33.1 22.0 1,015.9 β†’ Stable 87,684 chaleur-seche
12571 07/08/2026 14:15 32.9 23.0 1,015.9 β†’ Stable 94,080 chaleur-seche
12570 07/08/2026 13:45 32.5 24.0 1,016.6 β†’ Stable 99,720 chaleur-seche
12569 07/08/2026 13:15 32.2 25.0 1,016.8 β†’ Stable 103,524 chaleur-seche
12568 07/08/2026 12:45 31.7 26.0 1,017.5 β†’ Stable 105,924 chaleur-seche